Time;durP1;ratioP1;P1;durP2;ratioP2;P2;SDS_P1;SDS_P2;PMS_P1;PMS_P2;Temp;Humidity;BMP_temperature;BMP_pressure;BME280_temperature;BME280_humidity;BME280_pressure;Samples;Min_cycle;Max_cycle;Signal;HPM_P1;HPM_P2
2022/03/12 00:01:58;;;;;;;8.93;3.10;;;;;;;;;;10359758;28;21014;-67
2022/03/12 00:06:59;;;;;;;7.63;3.47;;;;;;;;;;10364907;28;20506;-67
2022/03/12 00:12:00;;;;;;;6.45;3.40;;;;;;;;;;10359255;28;20056;-66
2022/03/12 00:17:01;;;;;;;6.20;3.67;;;;;;;;;;10367466;28;20034;-66
2022/03/12 00:22:03;;;;;;;7.53;4.03;;;;;;;;;;10358730;28;20437;-66
2022/03/12 00:27:06;;;;;;;10.63;3.72;;;;;;;;;;10363423;28;20467;-66
2022/03/12 00:32:07;;;;;;;4.72;3.28;;;;;;;;;;10357002;28;20278;-67
2022/03/12 00:37:07;;;;;;;6.30;3.33;;;;;;;;;;10363840;28;20582;-67
2022/03/12 00:42:08;;;;;;;9.98;4.00;;;;;;;;;;10360353;28;20022;-66
2022/03/12 00:47:08;;;;;;;9.90;3.53;;;;;;;;;;10348841;28;20034;-65
2022/03/12 00:52:09;;;;;;;6.37;3.60;;;;;;;;;;10359060;28;20246;-65
2022/03/12 00:57:11;;;;;;;6.47;3.27;;;;;;;;;;10363168;28;20479;-63
2022/03/12 01:02:15;;;;;;;5.68;3.67;;;;;;;;;;10363741;28;20467;-64
2022/03/12 01:07:15;;;;;;;6.65;3.40;;;;;;;;;;10364575;28;20081;-64
2022/03/12 01:12:15;;;;;;;6.57;3.88;;;;;;;;;;10365993;28;20120;-65
2022/03/12 01:17:16;;;;;;;6.13;3.90;;;;;;;;;;10363738;28;20133;-63
2022/03/12 01:22:20;;;;;;;7.68;3.58;;;;;;;;;;10374068;28;20470;-64
2022/03/12 01:27:20;;;;;;;5.30;3.63;;;;;;;;;;10363008;28;20491;-65
2022/03/12 01:32:21;;;;;;;8.27;3.70;;;;;;;;;;10365294;28;20025;-63
2022/03/12 01:37:21;;;;;;;8.25;3.47;;;;;;;;;;10363373;28;20460;-64
2022/03/12 01:42:22;;;;;;;5.63;3.40;;;;;;;;;;10364018;28;20221;-64
2022/03/12 01:47:22;;;;;;;5.75;3.60;;;;;;;;;;10356445;28;20030;-64
2022/03/12 01:52:25;;;;;;;4.95;3.58;;;;;;;;;;10351871;28;21263;-64
2022/03/12 01:57:26;;;;;;;5.97;3.17;;;;;;;;;;10357680;28;20048;-64
2022/03/12 02:02:29;;;;;;;5.00;3.58;;;;;;;;;;10356624;28;20347;-64
2022/03/12 02:07:29;;;;;;;9.70;3.55;;;;;;;;;;10359478;28;20105;-64
2022/03/12 02:12:30;;;;;;;4.63;3.60;;;;;;;;;;10354682;28;20113;-64
2022/03/12 02:17:30;;;;;;;7.13;3.50;;;;;;;;;;10358726;28;20037;-65
2022/03/12 02:22:31;;;;;;;6.70;4.03;;;;;;;;;;10356867;28;20459;-64
2022/03/12 02:27:32;;;;;;;7.13;3.42;;;;;;;;;;10365291;28;20026;-64
2022/03/12 02:32:32;;;;;;;5.65;3.60;;;;;;;;;;10357890;28;20036;-65
2022/03/12 02:37:33;;;;;;;5.47;3.50;;;;;;;;;;10359674;28;20037;-63
2022/03/12 02:42:34;;;;;;;4.30;3.30;;;;;;;;;;10356689;28;20124;-65
2022/03/12 02:47:36;;;;;;;7.22;3.60;;;;;;;;;;10360773;28;20052;-65
2022/03/12 02:52:40;;;;;;;5.07;3.45;;;;;;;;;;10349231;28;20026;-64
2022/03/12 02:57:42;;;;;;;5.45;3.75;;;;;;;;;;10358915;28;20068;-62
2022/03/12 03:02:47;;;;;;;5.05;3.65;;;;;;;;;;10350052;28;20048;-64
2022/03/12 03:07:55;;;;;;;4.00;3.33;;;;;;;;;;10354979;28;20508;-64
2022/03/12 03:12:57;;;;;;;3.33;2.88;;;;;;;;;;10352128;28;20058;-64
2022/03/12 03:17:58;;;;;;;5.18;3.60;;;;;;;;;;10370910;28;20441;-64
2022/03/12 03:22:59;;;;;;;5.55;3.13;;;;;;;;;;10365649;28;20493;-64
2022/03/12 03:27:59;;;;;;;4.43;3.40;;;;;;;;;;10365019;28;20026;-62
2022/03/12 03:33:00;;;;;;;6.27;3.03;;;;;;;;;;10380678;28;20025;-64
2022/03/12 03:38:01;;;;;;;7.03;3.35;;;;;;;;;;10366993;28;20463;-63
2022/03/12 03:43:01;;;;;;;5.00;3.30;;;;;;;;;;10369640;28;20126;-64
2022/03/12 03:48:02;;;;;;;5.55;3.03;;;;;;;;;;10365970;28;21063;-64
2022/03/12 03:53:03;;;;;;;3.50;3.17;;;;;;;;;;10370090;28;20053;-62
2022/03/12 03:58:04;;;;;;;5.18;3.38;;;;;;;;;;10370114;28;20018;-62
2022/03/12 04:03:04;;;;;;;4.20;3.40;;;;;;;;;;10331267;28;20489;-63
2022/03/12 04:08:07;;;;;;;5.30;3.05;;;;;;;;;;10362357;28;20475;-62
2022/03/12 04:13:16;;;;;;;4.03;3.30;;;;;;;;;;10368320;28;20073;-63
2022/03/12 04:18:18;;;;;;;7.10;3.25;;;;;;;;;;10361522;28;20042;-63
2022/03/12 04:23:21;;;;;;;3.88;3.00;;;;;;;;;;10366219;28;20281;-64
2022/03/12 04:28:23;;;;;;;4.40;3.22;;;;;;;;;;10363833;28;20048;-64
2022/03/12 04:33:24;;;;;;;5.30;3.15;;;;;;;;;;10367441;28;20273;-64
2022/03/12 04:38:25;;;;;;;7.10;3.10;;;;;;;;;;10368787;28;20301;-63
2022/03/12 04:43:29;;;;;;;3.83;3.28;;;;;;;;;;10366607;28;20451;-64
2022/03/12 04:48:30;;;;;;;3.08;2.78;;;;;;;;;;10363749;28;20038;-64
2022/03/12 04:53:32;;;;;;;6.45;3.17;;;;;;;;;;10363418;28;20049;-60
2022/03/12 04:58:32;;;;;;;4.15;2.83;;;;;;;;;;10367016;28;20034;-63
2022/03/12 05:03:33;;;;;;;3.63;2.93;;;;;;;;;;10356274;28;20042;-64
2022/03/12 05:08:36;;;;;;;4.20;3.17;;;;;;;;;;10346642;28;20491;-65
2022/03/12 05:13:37;;;;;;;4.70;2.95;;;;;;;;;;10353137;28;20033;-63
2022/03/12 05:18:39;;;;;;;4.88;3.03;;;;;;;;;;10358940;28;20497;-64
2022/03/12 05:23:40;;;;;;;3.78;2.97;;;;;;;;;;10346473;28;20029;-64
2022/03/12 05:28:41;;;;;;;4.63;3.17;;;;;;;;;;10359009;28;20493;-63
2022/03/12 05:33:41;;;;;;;2.90;2.60;;;;;;;;;;10352455;28;20487;-65
2022/03/12 05:38:42;;;;;;;3.53;3.13;;;;;;;;;;10366522;28;20107;-65
2022/03/12 05:43:46;;;;;;;5.80;3.13;;;;;;;;;;10353947;28;20030;-66
2022/03/12 05:48:47;;;;;;;4.28;2.97;;;;;;;;;;10361090;28;20808;-65
2022/03/12 05:53:49;;;;;;;3.33;2.75;;;;;;;;;;10346352;28;20088;-66
2022/03/12 05:58:49;;;;;;;4.22;3.33;;;;;;;;;;10355400;28;20026;-64
2022/03/12 06:03:49;;;;;;;5.47;2.63;;;;;;;;;;10357976;28;20073;-64
2022/03/12 06:08:50;;;;;;;3.20;2.50;;;;;;;;;;10343707;28;20388;-64
2022/03/12 06:14:00;;;;;;;2.88;2.53;;;;;;;;;;10353974;28;20444;-64
2022/03/12 06:19:01;;;;;;;6.25;2.78;;;;;;;;;;10351863;28;20081;-64
2022/03/12 06:24:02;;;;;;;3.33;2.70;;;;;;;;;;10356193;28;20053;-64
2022/03/12 06:29:03;;;;;;;3.63;3.03;;;;;;;;;;10356113;28;20570;-65
2022/03/12 06:34:04;;;;;;;3.42;3.03;;;;;;;;;;10361481;28;20040;-65
2022/03/12 06:39:05;;;;;;;4.28;2.90;;;;;;;;;;10358313;28;20032;-65
2022/03/12 06:44:06;;;;;;;3.65;2.95;;;;;;;;;;10355932;28;20022;-65
2022/03/12 06:49:07;;;;;;;3.67;2.70;;;;;;;;;;10360719;28;20385;-65
2022/03/12 06:54:08;;;;;;;4.90;2.63;;;;;;;;;;10355258;28;20028;-64
2022/03/12 06:59:08;;;;;;;3.05;2.55;;;;;;;;;;10348365;28;20046;-65
2022/03/12 07:04:10;;;;;;;3.07;2.77;;;;;;;;;;10353046;28;20032;-65
2022/03/12 07:09:10;;;;;;;7.40;2.95;;;;;;;;;;10343410;28;21492;-66
2022/03/12 07:14:11;;;;;;;4.40;2.83;;;;;;;;;;10362628;28;20432;-64
2022/03/12 07:19:11;;;;;;;3.95;2.97;;;;;;;;;;10355341;28;20478;-62
2022/03/12 07:24:16;;;;;;;3.13;2.70;;;;;;;;;;10362161;28;20030;-63
2022/03/12 07:29:17;;;;;;;2.65;2.45;;;;;;;;;;10360872;28;20034;-61
2022/03/12 07:34:19;;;;;;;4.25;2.78;;;;;;;;;;10362124;28;20049;-61
2022/03/12 07:39:20;;;;;;;8.00;2.72;;;;;;;;;;10361898;28;20109;-61
2022/03/12 07:44:22;;;;;;;6.45;3.10;;;;;;;;;;10360160;28;20026;-62
2022/03/12 07:49:23;;;;;;;6.13;2.53;;;;;;;;;;10358389;28;20025;-62
2022/03/12 07:54:24;;;;;;;4.32;2.60;;;;;;;;;;10363061;28;20228;-60
2022/03/12 07:59:26;;;;;;;4.17;3.50;;;;;;;;;;10357727;28;20341;-63
2022/03/12 08:04:26;;;;;;;5.00;2.78;;;;;;;;;;10359007;28;20795;-63
2022/03/12 08:09:27;;;;;;;3.57;2.97;;;;;;;;;;10365698;28;20033;-62
2022/03/12 08:14:28;;;;;;;3.13;2.80;;;;;;;;;;10368027;28;20506;-62
2022/03/12 08:19:28;;;;;;;3.63;3.03;;;;;;;;;;10361569;28;20140;-61
2022/03/12 08:24:29;;;;;;;4.82;2.80;;;;;;;;;;10365979;28;20484;-63
2022/03/12 08:29:29;;;;;;;89.78;52.05;;;;;;;;;;10360637;28;20488;-59
2022/03/12 08:34:29;;;;;;;42.00;21.17;;;;;;;;;;10365865;28;20022;-59
2022/03/12 08:39:31;;;;;;;47.70;26.57;;;;;;;;;;10366667;28;20827;-63
2022/03/12 08:44:31;;;;;;;64.50;35.05;;;;;;;;;;10363979;28;20030;-53
2022/03/12 08:49:32;;;;;;;74.43;40.17;;;;;;;;;;10362296;28;20037;-61
2022/03/12 08:54:32;;;;;;;78.20;43.67;;;;;;;;;;10370161;28;20030;-62
2022/03/12 08:59:33;;;;;;;92.55;51.88;;;;;;;;;;10368251;28;20048;-60
2022/03/12 09:04:34;;;;;;;106.15;57.97;;;;;;;;;;10363351;28;20034;-64
2022/03/12 09:09:35;;;;;;;111.45;67.03;;;;;;;;;;10364466;28;20492;-70
2022/03/12 09:14:35;;;;;;;141.82;83.63;;;;;;;;;;10367130;28;20029;-62
2022/03/12 09:19:36;;;;;;;144.32;84.10;;;;;;;;;;10363700;28;20045;-63
2022/03/12 09:24:38;;;;;;;153.45;91.82;;;;;;;;;;10362733;28;20411;-61
2022/03/12 09:29:38;;;;;;;168.55;99.60;;;;;;;;;;10347563;28;20045;-63
2022/03/12 09:34:40;;;;;;;166.27;104.70;;;;;;;;;;10362272;28;20382;-64
2022/03/12 09:39:41;;;;;;;173.30;105.85;;;;;;;;;;10369921;28;20478;-71
2022/03/12 09:44:41;;;;;;;188.50;112.70;;;;;;;;;;10362486;28;20033;-68
2022/03/12 09:49:42;;;;;;;249.93;152.53;;;;;;;;;;10366841;28;20033;-65
2022/03/12 09:54:44;;;;;;;216.40;133.80;;;;;;;;;;10356273;28;20582;-67
2022/03/12 09:59:44;;;;;;;233.40;142.57;;;;;;;;;;10355972;28;20029;-62
2022/03/12 10:04:45;;;;;;;237.75;140.82;;;;;;;;;;10372800;28;20080;-61
2022/03/12 10:09:45;;;;;;;232.45;145.25;;;;;;;;;;10344252;28;20424;-66
2022/03/12 10:14:48;;;;;;;237.03;147.43;;;;;;;;;;10365132;28;20141;-63
2022/03/12 10:19:48;;;;;;;243.82;152.75;;;;;;;;;;10359780;28;20049;-63
2022/03/12 10:24:50;;;;;;;124.55;76.50;;;;;;;;;;10364279;28;20044;-66
2022/03/12 10:29:50;;;;;;;91.38;54.70;;;;;;;;;;10353883;28;20068;-63
2022/03/12 10:34:55;;;;;;;99.20;57.88;;;;;;;;;;10353513;28;20022;-63
2022/03/12 10:40:07;;;;;;;97.75;55.33;;;;;;;;;;10362608;28;20041;-65
2022/03/12 10:45:10;;;;;;;96.30;59.08;;;;;;;;;;10360096;28;20026;-63
2022/03/12 10:50:18;;;;;;;91.55;56.35;;;;;;;;;;10360807;28;20030;-65
2022/03/12 10:55:23;;;;;;;98.60;56.45;;;;;;;;;;10343431;28;20061;-61
2022/03/12 11:00:25;;;;;;;117.32;70.63;;;;;;;;;;10358873;28;20046;-59
2022/03/12 11:05:27;;;;;;;102.82;58.08;;;;;;;;;;10358682;28;20026;-64
2022/03/12 11:10:32;;;;;;;90.57;51.63;;;;;;;;;;10360305;28;20026;-64
2022/03/12 11:15:32;;;;;;;95.43;56.67;;;;;;;;;;10341992;28;20504;-64
2022/03/12 11:20:35;;;;;;;107.00;65.68;;;;;;;;;;10353640;23;20053;-59
2022/03/12 11:25:50;;;;;;;83.90;50.03;;;;;;;;;;10330854;28;20469;-59
2022/03/12 11:30:51;;;;;;;97.05;54.20;;;;;;;;;;10354341;28;20519;-59
2022/03/12 11:36:08;;;;;;;112.70;68.95;;;;;;;;;;10357427;28;20042;-62
2022/03/12 11:41:23;;;;;;;108.15;66.55;;;;;;;;;;10358716;28;20124;-59
2022/03/12 11:46:23;;;;;;;124.70;74.68;;;;;;;;;;10370442;28;20037;-62
2022/03/12 11:51:24;;;;;;;130.85;78.25;;;;;;;;;;10375250;28;20431;-61
2022/03/12 11:56:27;;;;;;;151.50;89.38;;;;;;;;;;10371753;28;20018;-63
2022/03/12 12:01:28;;;;;;;157.27;94.40;;;;;;;;;;10380626;28;20503;-63
2022/03/12 12:06:28;;;;;;;170.85;104.63;;;;;;;;;;10371900;28;20149;-59
2022/03/12 12:11:35;;;;;;;174.63;108.40;;;;;;;;;;10357159;28;20038;-60
2022/03/12 12:16:35;;;;;;;169.88;106.05;;;;;;;;;;10367620;28;20467;-60
2022/03/12 12:21:36;;;;;;;156.75;95.82;;;;;;;;;;10359922;28;20068;-63
2022/03/12 12:26:56;;;;;;;142.13;87.82;;;;;;;;;;10342426;28;20023;-60
2022/03/12 12:32:03;;;;;;;139.18;85.10;;;;;;;;;;10354039;28;20045;-60
2022/03/12 12:37:04;;;;;;;135.30;83.57;;;;;;;;;;10360648;28;20185;-60
2022/03/12 12:42:05;;;;;;;139.57;85.38;;;;;;;;;;10354077;28;20138;-61
2022/03/12 12:47:07;;;;;;;141.63;84.65;;;;;;;;;;10349389;28;20026;-60
2022/03/12 12:52:08;;;;;;;136.85;85.00;;;;;;;;;;10351667;28;20026;-60
2022/03/12 12:57:11;;;;;;;142.00;88.72;;;;;;;;;;10355392;28;20470;-60
2022/03/12 13:02:11;;;;;;;144.80;89.75;;;;;;;;;;10353820;28;20548;-60
2022/03/12 13:07:23;;;;;;;145.90;90.90;;;;;;;;;;10350501;28;20021;-63
2022/03/12 13:12:38;;;;;;;160.68;98.15;;;;;;;;;;10354980;28;20069;-60
2022/03/12 13:17:38;;;;;;;169.27;102.88;;;;;;;;;;10368366;28;20041;-63
2022/03/12 13:22:45;;;;;;;154.63;97.73;;;;;;;;;;10358601;28;20061;-60
2022/03/12 13:27:59;;;;;;;153.57;98.13;;;;;;;;;;10339562;28;20555;-61
2022/03/12 13:33:07;;;;;;;155.30;95.10;;;;;;;;;;10355623;28;20040;-60
2022/03/12 13:38:08;;;;;;;152.68;95.95;;;;;;;;;;10350835;28;20031;-60
2022/03/12 13:43:08;;;;;;;145.67;91.63;;;;;;;;;;10355503;28;20030;-60
2022/03/12 13:48:09;;;;;;;145.60;90.10;;;;;;;;;;10338693;28;20507;-59
2022/03/12 13:53:12;;;;;;;147.70;90.57;;;;;;;;;;10357284;28;20385;-58
2022/03/12 13:58:13;;;;;;;143.55;87.70;;;;;;;;;;10348279;28;20030;-64
2022/03/12 14:03:13;;;;;;;144.23;87.20;;;;;;;;;;10365114;28;20469;-66
2022/03/12 14:08:22;;;;;;;140.73;83.80;;;;;;;;;;10346919;28;20154;-66
2022/03/12 14:13:22;;;;;;;;;;;;;;;;;;10357445;28;20061;-67
2022/03/12 14:18:25;;;;;;;142.70;84.57;;;;;;;;;;10342838;28;20029;-66
2022/03/12 14:23:26;;;;;;;136.30;83.13;;;;;;;;;;10351455;28;20116;-66
2022/03/12 14:28:26;;;;;;;123.85;79.20;;;;;;;;;;10336331;28;20177;-65
2022/03/12 14:33:26;;;;;;;122.17;76.60;;;;;;;;;;10353690;28;20610;-65
2022/03/12 14:38:27;;;;;;;123.23;78.53;;;;;;;;;;10347652;28;20499;-66
2022/03/12 14:43:29;;;;;;;119.25;75.55;;;;;;;;;;10350107;28;20093;-66
2022/03/12 14:48:30;;;;;;;115.72;74.25;;;;;;;;;;10348053;28;20030;-66
2022/03/12 14:53:41;;;;;;;120.13;74.10;;;;;;;;;;10346659;28;20037;-66
2022/03/12 14:58:41;;;;;;;107.75;70.15;;;;;;;;;;10348787;28;20113;-66
2022/03/12 15:03:42;;;;;;;107.07;69.90;;;;;;;;;;10351902;28;20038;-65
2022/03/12 15:08:44;;;;;;;118.50;69.43;;;;;;;;;;10348797;28;20035;-64
2022/03/12 15:13:49;;;;;;;109.20;68.88;;;;;;;;;;10354504;28;20157;-64
2022/03/12 15:18:49;;;;;;;105.47;67.10;;;;;;;;;;10355980;28;20160;-64
2022/03/12 15:23:51;;;;;;;104.82;66.90;;;;;;;;;;10352094;28;20038;-64
2022/03/12 15:28:51;;;;;;;107.90;67.78;;;;;;;;;;10353441;28;20375;-63
2022/03/12 15:33:54;;;;;;;99.55;65.43;;;;;;;;;;10365746;28;20038;-64
2022/03/12 15:38:56;;;;;;;102.18;62.67;;;;;;;;;;10354181;28;20466;-64
2022/03/12 15:43:58;;;;;;;98.63;62.67;;;;;;;;;;10355998;28;20026;-65
2022/03/12 15:49:00;;;;;;;96.53;61.08;;;;;;;;;;10359873;28;20029;-64
2022/03/12 15:54:00;;;;;;;94.82;60.40;;;;;;;;;;10340679;28;20130;-64
2022/03/12 15:59:02;;;;;;;100.53;61.70;;;;;;;;;;10357282;28;20034;-64
2022/03/12 16:04:04;;;;;;;92.25;60.63;;;;;;;;;;10357328;28;20463;-64
2022/03/12 16:09:05;;;;;;;90.95;59.15;;;;;;;;;;10358111;28;20101;-64
2022/03/12 16:14:05;;;;;;;90.93;57.83;;;;;;;;;;10360996;28;20085;-64
2022/03/12 16:19:06;;;;;;;89.93;55.97;;;;;;;;;;10353392;28;20499;-64
2022/03/12 16:24:08;;;;;;;77.57;51.13;;;;;;;;;;10355359;28;20034;-61
2022/03/12 16:29:10;;;;;;;81.38;50.15;;;;;;;;;;10359615;28;20111;-58
2022/03/12 16:34:11;;;;;;;79.18;47.90;;;;;;;;;;10356339;28;20033;-59
2022/03/12 16:39:13;;;;;;;75.95;48.40;;;;;;;;;;10345506;28;20021;-58
2022/03/12 16:44:15;;;;;;;75.90;47.15;;;;;;;;;;10354148;28;20486;-59
2022/03/12 16:49:16;;;;;;;71.55;47.78;;;;;;;;;;10345375;28;20496;-60
2022/03/12 16:54:18;;;;;;;73.25;45.95;;;;;;;;;;10348322;28;20038;-56
2022/03/12 16:59:19;;;;;;;71.43;44.92;;;;;;;;;;10354334;28;20029;-60
2022/03/12 17:04:20;;;;;;;68.07;44.75;;;;;;;;;;10346916;28;20034;-60
2022/03/12 17:09:20;;;;;;;70.60;44.60;;;;;;;;;;10346089;28;20044;-59
2022/03/12 17:14:21;;;;;;;66.00;43.33;;;;;;;;;;10352821;28;20023;-58
2022/03/12 17:19:22;;;;;;;69.68;45.42;;;;;;;;;;10354424;28;20854;-59
2022/03/12 17:24:23;;;;;;;65.60;41.55;;;;;;;;;;10354122;28;20030;-57
2022/03/12 17:29:24;;;;;;;62.97;42.72;;;;;;;;;;10370222;28;20030;-58
2022/03/12 17:34:25;;;;;;;63.72;38.30;;;;;;;;;;10351159;28;20057;-62
2022/03/12 17:39:25;;;;;;;43.37;29.77;;;;;;;;;;10350047;28;20117;-61
2022/03/12 17:44:27;;;;;;;37.17;25.10;;;;;;;;;;10351769;28;20654;-60
2022/03/12 17:49:28;;;;;;;35.35;21.95;;;;;;;;;;10356451;28;20072;-59
2022/03/12 17:54:28;;;;;;;37.00;20.65;;;;;;;;;;10354708;28;20113;-60
2022/03/12 17:59:28;;;;;;;31.70;18.83;;;;;;;;;;10354419;28;20030;-58
2022/03/12 18:04:29;;;;;;;28.30;18.20;;;;;;;;;;10352364;28;20034;-58
2022/03/12 18:09:30;;;;;;;29.20;16.15;;;;;;;;;;10353586;28;21087;-57
2022/03/12 18:14:31;;;;;;;24.27;17.15;;;;;;;;;;10347567;28;20109;-60
2022/03/12 18:19:31;;;;;;;27.17;15.85;;;;;;;;;;10361256;28;20045;-59
2022/03/12 18:24:32;;;;;;;23.95;15.68;;;;;;;;;;10361052;28;20076;-57
2022/03/12 18:29:32;;;;;;;23.60;16.10;;;;;;;;;;10357203;28;20567;-59
2022/03/12 18:34:34;;;;;;;22.65;14.55;;;;;;;;;;10359987;28;20459;-61
2022/03/12 18:39:35;;;;;;;21.27;13.93;;;;;;;;;;10363104;28;20038;-65
2022/03/12 18:44:35;;;;;;;18.93;13.47;;;;;;;;;;10367471;28;20033;-62
2022/03/12 18:49:37;;;;;;;19.80;12.73;;;;;;;;;;10366063;28;20605;-61
2022/03/12 18:54:38;;;;;;;19.40;11.90;;;;;;;;;;10366162;28;21013;-64
2022/03/12 18:59:40;;;;;;;25.95;13.10;;;;;;;;;;10359717;28;20488;-60
2022/03/12 19:04:41;;;;;;;25.30;11.82;;;;;;;;;;10361468;28;20120;-60
2022/03/12 19:09:41;;;;;;;22.37;11.83;;;;;;;;;;10362978;28;20037;-59
2022/03/12 19:14:41;;;;;;;27.15;11.68;;;;;;;;;;10349367;28;20456;-59
2022/03/12 19:19:42;;;;;;;20.38;11.50;;;;;;;;;;10356746;28;20045;-59
2022/03/12 19:24:42;;;;;;;20.53;10.93;;;;;;;;;;10337472;28;20032;-60
2022/03/12 19:29:43;;;;;;;19.40;11.35;;;;;;;;;;10346573;28;20486;-61
2022/03/12 19:34:43;;;;;;;20.38;9.48;;;;;;;;;;10341364;28;20056;-60
2022/03/12 19:39:44;;;;;;;25.20;9.70;;;;;;;;;;10344645;28;20038;-59
2022/03/12 19:44:45;;;;;;;13.93;9.85;;;;;;;;;;10342494;28;20464;-60
2022/03/12 19:49:46;;;;;;;16.60;9.40;;;;;;;;;;10346020;28;20374;-59
2022/03/12 19:54:47;;;;;;;17.65;10.07;;;;;;;;;;10349584;28;20034;-61
2022/03/12 19:59:48;;;;;;;14.75;9.13;;;;;;;;;;10355207;28;20087;-61
2022/03/12 20:04:48;;;;;;;15.43;9.25;;;;;;;;;;10360980;28;20030;-59
2022/03/12 20:09:49;;;;;;;15.93;8.87;;;;;;;;;;10351439;28;20038;-60
2022/03/12 20:14:52;;;;;;;17.10;10.07;;;;;;;;;;10350192;28;20463;-59
2022/03/12 20:19:57;;;;;;;15.18;9.90;;;;;;;;;;10353113;28;20100;-60
2022/03/12 20:24:58;;;;;;;20.05;9.15;;;;;;;;;;10348355;28;20498;-59
2022/03/12 20:30:00;;;;;;;17.38;9.98;;;;;;;;;;10341703;28;20030;-60
2022/03/12 20:35:01;;;;;;;14.70;8.75;;;;;;;;;;10368847;28;20393;-60
2022/03/12 20:40:03;;;;;;;23.10;9.55;;;;;;;;;;10361261;28;20503;-60
2022/03/12 20:45:04;;;;;;;20.33;9.05;;;;;;;;;;10377440;28;20524;-60
2022/03/12 20:50:05;;;;;;;20.13;8.90;;;;;;;;;;10363536;28;20074;-58
2022/03/12 20:55:06;;;;;;;20.20;9.25;;;;;;;;;;10346181;28;20038;-58
2022/03/12 21:00:08;;;;;;;16.27;9.55;;;;;;;;;;10350134;28;20080;-58
2022/03/12 21:05:10;;;;;;;13.18;8.52;;;;;;;;;;10359244;28;20023;-59
2022/03/12 21:10:15;;;;;;;14.70;8.43;;;;;;;;;;10349595;28;20029;-60
2022/03/12 21:15:15;;;;;;;14.25;9.18;;;;;;;;;;10361790;28;20159;-61
2022/03/12 21:20:18;;;;;;;16.75;8.82;;;;;;;;;;10367274;28;20039;-59
2022/03/12 21:25:20;;;;;;;16.80;9.05;;;;;;;;;;10384470;28;20504;-60
2022/03/12 21:30:22;;;;;;;15.45;8.40;;;;;;;;;;10349658;28;20030;-57
2022/03/12 21:35:25;;;;;;;17.52;9.02;;;;;;;;;;10336408;28;20553;-59
2022/03/12 21:40:30;;;;;;;16.40;9.15;;;;;;;;;;10354552;28;20058;-59
2022/03/12 21:45:34;;;;;;;16.73;8.40;;;;;;;;;;10349542;28;20548;-59
2022/03/12 21:50:35;;;;;;;12.50;7.60;;;;;;;;;;10351036;28;20260;-59
2022/03/12 21:55:36;;;;;;;12.95;7.97;;;;;;;;;;10358368;28;20030;-60
2022/03/12 22:00:38;;;;;;;17.00;8.05;;;;;;;;;;10346755;28;20030;-60
2022/03/12 22:05:39;;;;;;;12.70;8.32;;;;;;;;;;10351165;28;20026;-60
2022/03/12 22:10:39;;;;;;;18.50;8.93;;;;;;;;;;10350153;28;20030;-60
2022/03/12 22:15:41;;;;;;;12.80;8.35;;;;;;;;;;10364117;28;20037;-60
2022/03/12 22:20:42;;;;;;;10.93;7.93;;;;;;;;;;10351877;28;20041;-60
2022/03/12 22:25:42;;;;;;;8.95;6.72;;;;;;;;;;10361776;28;20026;-61
2022/03/12 22:30:44;;;;;;;15.93;9.05;;;;;;;;;;10345864;28;20262;-60
2022/03/12 22:35:45;;;;;;;13.75;8.00;;;;;;;;;;10338194;28;20215;-60
2022/03/12 22:40:49;;;;;;;10.90;7.73;;;;;;;;;;10342738;28;20041;-60
2022/03/12 22:45:50;;;;;;;16.30;7.75;;;;;;;;;;10352219;28;20491;-60
2022/03/12 22:50:51;;;;;;;15.95;7.68;;;;;;;;;;10348639;28;20042;-60
2022/03/12 22:55:51;;;;;;;13.18;7.93;;;;;;;;;;10355867;28;20038;-60
2022/03/12 23:00:58;;;;;;;12.68;7.88;;;;;;;;;;10345908;28;20436;-60
2022/03/12 23:11:19;;;;;;;12.25;7.07;;;;;;;;;;10349905;28;20034;-60
2022/03/12 23:16:19;;;;;;;11.50;7.05;;;;;;;;;;10350038;28;20030;-60
2022/03/12 23:21:20;;;;;;;12.23;7.18;;;;;;;;;;10358431;28;20045;-60
2022/03/12 23:26:25;;;;;;;12.48;8.05;;;;;;;;;;10349590;28;20026;-60
2022/03/12 23:31:28;;;;;;;10.70;7.10;;;;;;;;;;10359073;28;20477;-59
2022/03/12 23:36:28;;;;;;;12.73;7.43;;;;;;;;;;10355201;28;20037;-59
2022/03/12 23:41:28;;;;;;;8.07;6.90;;;;;;;;;;10350413;28;20038;-60
2022/03/12 23:46:29;;;;;;;14.97;7.17;;;;;;;;;;10343175;28;20482;-60
2022/03/12 23:52:07;;;;;;;12.30;6.97;;;;;;;;;;10358205;28;20088;-59
2022/03/12 23:57:09;;;;;;;11.43;7.03;;;;;;;;;;10350547;28;20501;-59
